Time;durP1;ratioP1;P1;durP2;ratioP2;P2;SDS_P1;SDS_P2;PMS_P1;PMS_P2;Temp;Humidity;BMP_temperature;BMP_pressure;BME280_temperature;BME280_humidity;BME280_pressure;Samples;Min_cycle;Max_cycle;Signal;HPM_P1;HPM_P2
2023/07/22 04:22:33;;;;;;;3.60;2.50;;;;;;;12.85;100.00;100150.84;5109876;27;20323;-67
2023/07/22 04:24:59;;;;;;;3.53;2.10;;;;;;;12.79;100.00;100161.47;5109845;28;20434;-68
2023/07/22 04:27:26;;;;;;;3.28;2.10;;;;;;;12.97;100.00;100156.50;5108538;28;20047;-67
2023/07/22 04:29:52;;;;;;;5.00;2.65;;;;;;;12.81;100.00;100156.75;5109411;28;20039;-67
2023/07/22 04:32:18;;;;;;;3.47;2.40;;;;;;;12.86;100.00;100159.69;5108511;28;20546;-67
2023/07/22 04:34:43;;;;;;;5.22;2.35;;;;;;;12.95;100.00;100155.88;5109734;28;20044;-68
2023/07/22 04:37:09;;;;;;;4.15;2.30;;;;;;;12.96;100.00;100160.19;5108417;28;20046;-66
2023/07/22 04:39:35;;;;;;;5.88;2.45;;;;;;;13.02;100.00;100162.94;5108118;28;20047;-68
2023/07/22 04:42:00;;;;;;;2.58;2.10;;;;;;;12.93;100.00;100163.25;5109490;28;20036;-68
2023/07/22 04:44:26;;;;;;;3.15;2.13;;;;;;;13.00;100.00;100174.84;5109392;28;20040;-67
2023/07/22 04:46:52;;;;;;;2.53;2.03;;;;;;;13.10;100.00;100153.94;5109361;28;20052;-67
2023/07/22 04:49:17;;;;;;;2.95;2.35;;;;;;;13.06;100.00;100165.25;5109061;28;20035;-66
2023/07/22 04:51:46;;;;;;;3.13;2.05;;;;;;;13.05;100.00;100159.06;5109396;28;20396;-68
2023/07/22 04:54:11;;;;;;;3.45;2.10;;;;;;;13.14;100.00;100162.44;5091150;28;20054;-66
2023/07/22 04:56:38;;;;;;;5.57;2.42;;;;;;;13.20;100.00;100161.66;5109212;28;20031;-67
2023/07/22 04:59:03;;;;;;;3.28;2.58;;;;;;;13.19;100.00;100155.50;5107606;28;20039;-67
2023/07/22 05:01:29;;;;;;;3.50;2.78;;;;;;;13.22;100.00;100165.00;5109220;28;20060;-68
2023/07/22 05:03:55;;;;;;;3.05;2.25;;;;;;;13.24;100.00;100161.13;5108963;28;20044;-67
2023/07/22 05:06:21;;;;;;;3.75;2.40;;;;;;;13.33;100.00;100163.66;5107853;28;20039;-67
2023/07/22 05:08:46;;;;;;;3.80;2.20;;;;;;;13.42;100.00;100165.16;5108783;28;20047;-68
2023/07/22 05:11:12;;;;;;;3.10;2.00;;;;;;;13.54;100.00;100168.97;5108887;28;20134;-68
2023/07/22 05:13:37;;;;;;;3.13;2.30;;;;;;;13.65;100.00;100168.44;5109005;28;20028;-67
2023/07/22 05:16:03;;;;;;;4.80;2.33;;;;;;;13.75;100.00;100173.44;5108706;28;20028;-68
2023/07/22 05:18:28;;;;;;;3.58;2.42;;;;;;;13.83;100.00;100162.59;5108663;28;20111;-63
2023/07/22 05:20:53;;;;;;;3.38;2.05;;;;;;;13.91;100.00;100170.47;5108740;28;20063;-68
2023/07/22 05:23:19;;;;;;;2.97;2.22;;;;;;;13.99;100.00;100174.84;5108825;28;20063;-68
2023/07/22 05:25:50;;;;;;;2.55;2.08;;;;;;;14.09;100.00;100173.47;5108466;28;20040;-67
2023/07/22 05:28:16;;;;;;;5.68;2.55;;;;;;;14.17;100.00;100180.50;5107237;28;20476;-68
2023/07/22 05:30:41;;;;;;;4.05;2.35;;;;;;;14.28;100.00;100185.31;5108513;28;20107;-68
2023/07/22 05:33:07;;;;;;;3.13;2.20;;;;;;;14.38;100.00;100190.28;5099367;28;20079;-68
2023/07/22 05:35:32;;;;;;;3.10;2.25;;;;;;;14.46;100.00;100184.78;5093653;28;20036;-68
2023/07/22 05:37:57;;;;;;;3.08;1.92;;;;;;;14.51;100.00;100185.00;5093535;28;20628;-68
2023/07/22 05:40:23;;;;;;;2.90;2.20;;;;;;;14.62;100.00;100192.50;5094542;28;20071;-67
2023/07/22 05:42:48;;;;;;;4.20;2.40;;;;;;;14.73;100.00;100185.69;5094808;28;20116;-68
2023/07/22 05:45:15;;;;;;;3.10;2.00;;;;;;;14.82;100.00;100189.03;5094713;28;20389;-68
2023/07/22 05:47:40;;;;;;;3.93;1.97;;;;;;;14.93;100.00;100201.84;5095217;28;20090;-65
2023/07/22 05:50:06;;;;;;;3.10;1.70;;;;;;;15.07;100.00;100194.69;5094373;28;20370;-61
2023/07/22 05:52:32;;;;;;;4.28;1.83;;;;;;;15.17;100.00;100198.59;5094806;28;20044;-59
2023/07/22 05:54:57;;;;;;;3.95;2.10;;;;;;;15.28;100.00;100205.22;5094546;28;20055;-52
2023/07/22 05:57:23;;;;;;;2.20;1.75;;;;;;;15.38;100.00;100202.94;5094448;28;20044;-53
2023/07/22 05:59:48;;;;;;;2.70;1.67;;;;;;;15.52;100.00;100192.22;5094284;28;20036;-53
2023/07/22 06:02:13;;;;;;;2.83;2.00;;;;;;;15.64;100.00;100194.09;5094426;28;20039;-52
2023/07/22 06:04:39;;;;;;;2.53;1.95;;;;;;;15.74;100.00;100193.69;5094418;28;20049;-53
2023/07/22 06:07:04;;;;;;;2.83;1.90;;;;;;;15.82;100.00;100201.53;5094370;28;20077;-52
2023/07/22 06:09:30;;;;;;;2.17;1.70;;;;;;;15.88;100.00;100205.25;5093923;28;20036;-52
2023/07/22 06:11:55;;;;;;;2.78;1.85;;;;;;;15.96;100.00;100208.53;5094168;28;20047;-54
2023/07/22 06:14:21;;;;;;;3.97;1.95;;;;;;;16.02;100.00;100213.06;5094183;28;20098;-52
2023/07/22 06:16:46;;;;;;;3.88;2.05;;;;;;;16.14;99.68;100207.06;5094065;28;20032;-54
2023/07/22 06:19:11;;;;;;;3.13;2.28;;;;;;;16.12;99.03;100212.66;5093894;28;20044;-54
2023/07/22 06:21:37;;;;;;;2.47;1.70;;;;;;;16.25;98.54;100206.41;5093932;28;20123;-52
2023/07/22 06:24:02;;;;;;;2.95;2.22;;;;;;;16.27;98.72;100210.53;5094057;28;20063;-53
2023/07/22 06:26:28;;;;;;;2.88;1.83;;;;;;;16.40;98.25;100206.97;5093817;28;20412;-54
2023/07/22 06:28:53;;;;;;;2.90;1.67;;;;;;;16.49;98.01;100204.88;5093798;28;20487;-53
2023/07/22 06:31:18;;;;;;;4.28;2.33;;;;;;;16.64;96.61;100204.63;5093659;28;20047;-54
2023/07/22 06:33:44;;;;;;;3.33;1.85;;;;;;;16.74;95.84;100208.53;5093976;28;20127;-52
2023/07/22 06:36:09;;;;;;;2.22;1.70;;;;;;;16.73;95.34;100204.19;5093447;28;20036;-52
2023/07/22 06:38:34;;;;;;;2.88;2.17;;;;;;;16.88;94.74;100205.75;5093553;28;20817;-52
2023/07/22 06:41:00;;;;;;;2.03;1.58;;;;;;;17.01;91.68;100211.06;5093786;28;20036;-52
2023/07/22 06:43:25;;;;;;;3.05;1.98;;;;;;;17.06;91.91;100206.69;5093472;28;20040;-51
2023/07/22 06:45:50;;;;;;;3.83;1.90;;;;;;;17.20;91.32;100210.13;5092767;28;20438;-53
2023/07/22 06:48:16;;;;;;;2.50;1.60;;;;;;;17.34;90.41;100213.53;5093378;28;20121;-51
2023/07/22 06:50:49;;;;;;;2.92;2.05;;;;;;;17.46;89.79;100208.28;5093464;28;20040;-51
2023/07/22 06:53:15;;;;;;;2.72;1.85;;;;;;;17.61;89.21;100198.03;5093626;28;20504;-52
2023/07/22 06:55:51;;;;;;;1.90;1.58;;;;;;;17.73;87.53;100209.75;5093296;28;20031;-52
2023/07/22 06:58:17;;;;;;;2.08;1.48;;;;;;;17.86;86.55;100203.41;5093150;28;20032;-53
2023/07/22 07:00:42;;;;;;;2.95;1.83;;;;;;;17.92;84.79;100209.78;5093080;28;20035;-53
2023/07/22 07:03:08;;;;;;;2.53;1.95;;;;;;;18.07;82.62;100203.00;5093134;28;20400;-52
2023/07/22 07:05:34;;;;;;;2.50;1.55;;;;;;;18.32;82.66;100211.03;5093102;28;20032;-52
2023/07/22 07:08:00;;;;;;;2.72;1.95;;;;;;;18.44;82.37;100208.41;5093233;28;20040;-52
2023/07/22 07:10:25;;;;;;;2.97;2.10;;;;;;;18.66;81.49;100208.75;5092692;28;20039;-52
2023/07/22 07:12:51;;;;;;;3.03;1.70;;;;;;;18.79;80.57;100207.81;5091908;28;20450;-55
2023/07/22 07:15:16;;;;;;;1.65;1.50;;;;;;;18.77;79.13;100204.50;5092942;28;20028;-55
2023/07/22 07:17:42;;;;;;;3.13;1.73;;;;;;;18.83;78.70;100208.97;5093131;28;20048;-55
2023/07/22 07:20:08;;;;;;;2.83;1.85;;;;;;;18.81;77.19;100211.09;5092732;28;20143;-56
2023/07/22 07:22:33;;;;;;;3.60;1.83;;;;;;;18.85;77.29;100206.91;5092864;28;20036;-53
2023/07/22 07:24:58;;;;;;;2.40;1.38;;;;;;;18.82;79.69;100210.03;5092969;28;20040;-54
2023/07/22 07:27:24;;;;;;;1.92;1.40;;;;;;;18.83;78.63;100219.78;5092859;28;20119;-52
2023/07/22 07:29:49;;;;;;;2.45;1.80;;;;;;;18.84;79.22;100218.72;5092567;28;20076;-61
2023/07/22 07:32:15;;;;;;;2.00;1.63;;;;;;;18.97;78.15;100211.28;5092613;28;20043;-62
2023/07/22 07:34:40;;;;;;;1.92;1.50;;;;;;;19.19;77.90;100213.47;5092782;28;20388;-60
2023/07/22 07:37:05;;;;;;;2.33;1.67;;;;;;;19.30;78.48;100223.47;5092441;28;20039;-61
2023/07/22 07:39:31;;;;;;;2.47;1.80;;;;;;;19.42;77.57;100212.69;5092315;28;20044;-61
2023/07/22 07:41:56;;;;;;;2.72;1.65;;;;;;;19.62;75.59;100217.78;5092644;28;20397;-60
2023/07/22 07:44:21;;;;;;;2.78;1.80;;;;;;;19.71;76.10;100219.94;5092651;28;20043;-61
2023/07/22 07:46:47;;;;;;;2.50;1.52;;;;;;;19.83;75.89;100216.44;5092608;28;20068;-60
2023/07/22 07:49:12;;;;;;;3.13;2.00;;;;;;;19.83;77.20;100219.94;5092227;28;20101;-60
2023/07/22 07:51:38;;;;;;;3.33;1.67;;;;;;;19.97;76.22;100223.25;5092318;28;20130;-59
2023/07/22 07:54:06;;;;;;;2.35;1.58;;;;;;;19.89;74.14;100218.19;5092584;28;20044;-61
2023/07/22 07:56:31;;;;;;;2.60;1.50;;;;;;;20.01;75.34;100224.41;5092235;28;20048;-61
2023/07/22 07:58:56;;;;;;;5.28;2.08;;;;;;;20.05;74.53;100222.88;5092309;28;20088;-61
2023/07/22 08:01:22;;;;;;;3.80;2.65;;;;;;;19.99;75.30;100218.41;5092560;28;20431;-62
2023/07/22 08:03:47;;;;;;;4.78;3.38;;;;;;;20.03;75.81;100223.13;5092575;28;20043;-60
2023/07/22 08:06:13;;;;;;;2.30;1.80;;;;;;;20.15;72.43;100209.59;5092310;28;20042;-62
2023/07/22 08:08:39;;;;;;;2.30;1.58;;;;;;;20.25;70.51;100212.50;5092102;28;20467;-61
2023/07/22 08:11:08;;;;;;;1.95;1.48;;;;;;;20.27;71.92;100217.66;5091244;28;20048;-60
2023/07/22 08:13:35;;;;;;;3.13;1.73;;;;;;;20.37;70.79;100220.59;5092572;28;20166;-60
2023/07/22 08:16:05;;;;;;;2.15;1.52;;;;;;;20.40;71.38;100213.88;5092815;28;20491;-62
2023/07/22 08:18:31;;;;;;;3.20;1.90;;;;;;;20.56;69.95;100213.19;5092156;28;20051;-61
2023/07/22 08:20:57;;;;;;;2.53;1.88;;;;;;;20.80;69.02;100220.19;5092523;28;20036;-62
2023/07/22 08:23:23;;;;;;;2.53;1.52;;;;;;;20.86;69.38;100213.81;5092578;28;20081;-61
2023/07/22 08:25:49;;;;;;;3.17;1.88;;;;;;;21.12;66.29;100203.41;5092178;28;20032;-60
2023/07/22 08:28:15;;;;;;;3.55;1.80;;;;;;;21.29;66.46;100212.44;5091777;28;20043;-62
2023/07/22 08:30:42;;;;;;;5.07;1.80;;;;;;;21.22;63.46;100206.31;5091922;28;20115;-60
2023/07/22 08:33:08;;;;;;;2.83;1.53;;;;;;;21.12;63.42;100206.94;5091953;28;20051;-60
2023/07/22 08:35:35;;;;;;;3.20;2.03;;;;;;;21.09;64.48;100201.22;5091810;28;20300;-60
2023/07/22 08:38:02;;;;;;;3.55;2.00;;;;;;;21.07;65.09;100211.47;5092024;28;20102;-59
2023/07/22 08:40:27;;;;;;;3.20;2.10;;;;;;;21.19;66.92;100206.81;5091718;28;20040;-60
2023/07/22 08:42:53;;;;;;;3.72;2.10;;;;;;;21.29;65.35;100209.72;5091874;28;20508;-61
2023/07/22 08:45:20;;;;;;;3.42;1.88;;;;;;;21.29;67.79;100204.31;5091940;28;20047;-60
2023/07/22 08:47:47;;;;;;;3.72;1.90;;;;;;;21.43;67.93;100207.53;5091747;28;20036;-60
2023/07/22 08:50:17;;;;;;;2.80;1.75;;;;;;;21.64;65.82;100203.25;5091617;28;20039;-60
2023/07/22 08:52:43;;;;;;;2.50;1.75;;;;;;;21.82;67.06;100200.28;5091884;28;20096;-60
2023/07/22 08:55:10;;;;;;;7.57;6.47;;;;;;;22.09;63.64;100195.00;5091905;28;20051;-58
2023/07/22 08:57:36;;;;;;;4.22;2.78;;;;;;;22.11;64.10;100186.63;5091711;28;20383;-60
2023/07/22 09:00:05;;;;;;;3.47;1.90;;;;;;;22.35;64.36;100193.44;5091079;28;20040;-59
2023/07/22 09:02:32;;;;;;;2.83;1.60;;;;;;;22.55;60.50;100187.44;5091683;28;20070;-60
2023/07/22 09:04:58;;;;;;;2.45;1.65;;;;;;;22.89;62.28;100193.59;5091765;28;20103;-60
2023/07/22 09:07:25;;;;;;;3.90;1.70;;;;;;;23.05;58.07;100189.13;5092261;28;20043;-60
2023/07/22 09:09:51;;;;;;;1.97;1.40;;;;;;;23.21;53.74;100181.91;5095303;28;20119;-60
2023/07/22 09:12:17;;;;;;;2.88;1.45;;;;;;;23.33;53.46;100190.72;5095362;28;20470;-58
2023/07/22 09:14:44;;;;;;;3.30;1.60;;;;;;;23.19;53.95;100192.22;5095455;28;20035;-61
2023/07/22 09:17:10;;;;;;;2.65;1.50;;;;;;;23.64;52.21;100193.72;5095479;28;20020;-60
2023/07/22 09:19:35;;;;;;;2.30;1.45;;;;;;;23.80;49.25;100181.91;5094302;28;20508;-60
2023/07/22 09:22:01;;;;;;;2.97;1.30;;;;;;;23.91;51.69;100183.56;5098586;28;20020;-58
2023/07/22 09:24:29;;;;;;;3.60;1.73;;;;;;;24.03;50.60;100181.47;5111302;28;20031;-59
2023/07/22 09:26:55;;;;;;;3.65;1.85;;;;;;;24.16;51.55;100185.63;5103103;28;20036;-59
2023/07/22 09:29:41;;;;;;;2.40;1.48;;;;;;;24.18;47.72;100177.19;5101706;28;20089;-61
2023/07/22 09:32:07;;;;;;;2.08;1.38;;;;;;;24.46;47.16;100198.59;5111370;28;20552;-60
2023/07/22 09:34:32;;;;;;;1.85;1.35;;;;;;;24.48;47.24;100193.69;5099743;28;20066;-60
2023/07/22 09:37:03;;;;;;;1.63;1.33;;;;;;;24.58;47.92;100191.03;5106596;28;20036;-61
2023/07/22 09:39:30;;;;;;;2.22;1.45;;;;;;;24.80;48.45;100184.56;5106994;28;20035;-60
2023/07/22 09:41:56;;;;;;;5.10;2.35;;;;;;;24.94;45.48;100179.41;5098507;28;20032;-59
2023/07/22 09:44:22;;;;;;;1.92;1.50;;;;;;;25.24;46.45;100181.38;5111358;28;20040;-61
2023/07/22 09:46:49;;;;;;;2.90;1.47;;;;;;;25.07;44.62;100174.28;5101893;28;20071;-60
2023/07/22 09:49:18;;;;;;;5.70;1.70;;;;;;;25.09;44.85;100169.34;5103394;28;20044;-61
2023/07/22 09:51:43;;;;;;;3.35;1.48;;;;;;;25.31;44.38;100173.75;5109500;28;20039;-60
2023/07/22 09:54:09;;;;;;;3.10;1.45;;;;;;;25.01;44.46;100169.06;5097822;28;20098;-58
2023/07/22 09:56:49;;;;;;;3.05;1.90;;;;;;;25.61;45.29;100172.91;5109427;28;20065;-60
2023/07/22 09:59:18;;;;;;;2.90;1.70;;;;;;;25.36;42.79;100165.56;5104538;28;20031;-58
2023/07/22 10:01:46;;;;;;;2.47;1.90;;;;;;;25.58;43.02;100155.19;5099665;28;20059;-60
2023/07/22 10:04:15;;;;;;;5.03;2.10;;;;;;;25.98;44.10;100156.25;5111031;28;20432;-60
2023/07/22 10:06:42;;;;;;;2.75;1.67;;;;;;;26.05;44.12;100167.69;5100277;28;20063;-60
2023/07/22 10:09:10;;;;;;;;;;;;;;;26.18;42.88;100149.91;5104252;28;20046;-60
2023/07/22 10:11:35;;;;;;;3.83;1.55;;;;;;;26.21;44.03;100152.06;5101202;28;20018;-61
2023/07/22 10:14:04;;;;;;;2.15;1.67;;;;;;;26.52;42.75;100150.84;5114749;28;20139;-61
2023/07/22 10:16:30;;;;;;;5.15;2.17;;;;;;;26.79;43.88;100161.34;5114678;28;20472;-61
2023/07/22 10:18:57;;;;;;;3.53;1.60;;;;;;;27.07;41.76;100159.03;5114118;28;20088;-61
2023/07/22 10:21:28;;;;;;;1.90;1.30;;;;;;;27.25;39.88;100158.31;5114490;28;20476;-60
2023/07/22 10:23:55;;;;;;;3.70;1.50;;;;;;;27.69;39.61;100153.88;5114413;28;20040;-61
2023/07/22 10:26:20;;;;;;;2.80;1.60;;;;;;;27.87;38.13;100144.13;5113174;28;20089;-61
2023/07/22 10:28:47;;;;;;;1.92;1.60;;;;;;;27.72;38.77;100151.38;5114163;28;20035;-61
2023/07/22 10:31:20;;;;;;;4.40;1.60;;;;;;;27.93;37.25;100148.44;5114317;28;20074;-61
2023/07/22 10:33:49;;;;;;;3.90;1.80;;;;;;;28.00;37.57;100132.47;5086079;28;20115;-60
2023/07/22 10:36:16;;;;;;;2.90;1.75;;;;;;;28.43;38.78;100136.06;5082179;28;20492;-60
2023/07/22 10:38:42;;;;;;;4.22;2.25;;;;;;;28.41;37.39;100134.72;5086629;28;20496;-60
2023/07/22 10:41:18;;;;;;;1.92;1.65;;;;;;;28.78;37.47;100131.19;5114172;28;20106;-60
2023/07/22 10:43:55;;;;;;;3.20;1.83;;;;;;;29.16;36.75;100132.00;5114099;28;20027;-59
2023/07/22 10:46:35;;;;;;;2.50;1.75;;;;;;;29.36;35.11;100128.91;5114001;28;20031;-59
2023/07/22 10:49:11;;;;;;;4.38;1.95;;;;;;;29.12;35.50;100130.97;5113814;28;20031;-59
2023/07/22 10:51:37;;;;;;;2.42;1.80;;;;;;;29.35;35.22;100127.28;5113907;28;20050;-61
2023/07/22 10:54:03;;;;;;;3.08;2.03;;;;;;;29.17;33.92;100136.38;5112898;28;20399;-61
2023/07/22 10:56:28;;;;;;;3.40;1.90;;;;;;;29.55;34.29;100122.59;5113776;28;20040;-61
2023/07/22 10:58:53;;;;;;;2.63;2.15;;;;;;;29.92;34.83;100125.13;5097815;28;20093;-61
2023/07/22 11:01:28;;;;;;;2.83;1.73;;;;;;;29.75;36.72;100115.91;5093462;28;20039;-61
2023/07/22 11:04:18;;;;;;;2.75;1.88;;;;;;;30.07;33.31;100113.06;5084208;28;20118;-61
2023/07/22 11:06:43;;;;;;;3.97;1.85;;;;;;;29.81;35.78;100133.91;5082243;28;20103;-61
2023/07/22 11:09:33;;;;;;;4.70;2.20;;;;;;;29.54;32.67;100118.19;5084117;28;20036;-60
2023/07/22 11:12:10;;;;;;;3.75;1.95;;;;;;;29.94;32.97;100114.69;5093292;28;20386;-60
2023/07/22 11:15:02;;;;;;;2.95;2.13;;;;;;;30.42;33.04;100111.50;5093136;28;20063;-59
2023/07/22 11:17:30;;;;;;;4.80;2.22;;;;;;;30.04;33.03;100101.84;5093007;28;20028;-58
2023/07/22 11:19:56;;;;;;;3.13;2.03;;;;;;;30.68;33.50;100105.47;5092677;28;20031;-59
2023/07/22 11:22:22;;;;;;;3.55;1.88;;;;;;;30.99;33.12;100106.34;5092860;28;20032;-63
2023/07/22 11:24:48;;;;;;;8.05;2.50;;;;;;;31.19;31.27;100106.97;5092894;28;20039;-58
2023/07/22 11:27:13;;;;;;;3.83;2.33;;;;;;;30.69;32.32;100096.91;5092967;28;20079;-60
2023/07/22 11:29:40;;;;;;;2.67;2.00;;;;;;;30.42;32.50;100106.00;5092408;28;20043;-60
2023/07/22 11:32:06;;;;;;;5.63;2.10;;;;;;;30.50;31.30;100097.03;5092556;28;20115;-60
2023/07/22 11:34:31;;;;;;;3.70;1.75;;;;;;;30.42;31.98;100089.53;5092743;28;20036;-61
2023/07/22 11:36:58;;;;;;;4.28;2.22;;;;;;;30.44;31.43;100098.25;5092564;28;20561;-61
2023/07/22 11:39:25;;;;;;;4.68;2.10;;;;;;;30.72;32.15;100090.78;5092273;28;20032;-64
2023/07/22 11:41:51;;;;;;;6.57;2.40;;;;;;;30.30;32.48;100091.16;5092612;28;20477;-59
2023/07/22 11:44:22;;;;;;;2.85;2.08;;;;;;;29.91;31.87;100089.75;5092677;28;20028;-60
2023/07/22 11:47:04;;;;;;;4.10;1.95;;;;;;;29.58;32.40;100080.81;5092480;28;20040;-60
2023/07/22 11:49:38;;;;;;;4.55;2.10;;;;;;;29.38;32.21;100074.56;5092266;28;20488;-60
2023/07/22 11:52:14;;;;;;;5.43;2.60;;;;;;;29.13;33.42;100086.78;5092467;28;20028;-62
2023/07/22 11:54:42;;;;;;;5.43;1.95;;;;;;;29.24;32.63;100081.94;5088812;28;20043;-62
2023/07/22 11:57:18;;;;;;;4.72;2.10;;;;;;;29.00;32.28;100065.63;5092004;28;20073;-63
2023/07/22 11:59:45;;;;;;;4.30;2.00;;;;;;;28.17;32.20;100074.47;5084832;28;20485;-62
2023/07/22 12:02:14;;;;;;;4.10;2.25;;;;;;;28.61;32.11;100064.00;5084799;28;20549;-61
2023/07/22 12:04:40;;;;;;;5.03;2.15;;;;;;;28.98;31.63;100067.84;5092170;28;20024;-62
2023/07/22 12:07:05;;;;;;;4.50;1.90;;;;;;;28.65;33.38;100069.72;5091662;28;20028;-61
2023/07/22 12:09:31;;;;;;;4.93;2.55;;;;;;;29.29;32.46;100073.63;5090744;28;20042;-61
2023/07/22 12:11:58;;;;;;;3.83;2.10;;;;;;;29.66;33.84;100078.16;5091763;28;20086;-62
2023/07/22 12:14:24;;;;;;;4.15;2.30;;;;;;;29.91;31.73;100062.31;5091823;28;20404;-62
2023/07/22 12:16:56;;;;;;;4.28;2.40;;;;;;;29.92;31.78;100070.22;5082477;28;20047;-61
2023/07/22 12:19:22;;;;;;;4.40;2.30;;;;;;;29.71;32.02;100060.78;5078850;28;20032;-61
2023/07/22 12:21:48;;;;;;;3.47;2.10;;;;;;;29.89;31.44;100053.56;5081848;28;20021;-62
2023/07/22 12:24:14;;;;;;;4.88;2.13;;;;;;;29.85;32.56;100058.84;5088644;28;20081;-61
2023/07/22 12:26:40;;;;;;;3.07;1.80;;;;;;;30.02;32.80;100060.16;5086851;28;20063;-60
2023/07/22 12:29:05;;;;;;;5.25;2.20;;;;;;;29.93;33.71;100047.16;5070566;28;20041;-63
2023/07/22 12:31:30;;;;;;;3.08;1.90;;;;;;;30.43;32.56;100044.44;5071411;28;20037;-63
2023/07/22 12:33:57;;;;;;;4.10;2.17;;;;;;;30.90;32.15;100052.41;5071699;28;20033;-63
2023/07/22 12:36:22;;;;;;;3.88;2.17;;;;;;;31.26;31.18;100052.34;5071299;28;20041;-62
2023/07/22 12:38:48;;;;;;;4.30;2.20;;;;;;;30.79;31.49;100043.63;5070323;28;20038;-62
2023/07/22 12:41:13;;;;;;;6.57;2.35;;;;;;;31.46;30.02;100038.03;5071440;28;20048;-63
2023/07/22 12:43:39;;;;;;;4.18;2.08;;;;;;;31.93;29.60;100032.88;5073959;28;20064;-60
2023/07/22 12:46:04;;;;;;;4.53;2.50;;;;;;;31.51;27.96;100042.59;5078977;28;20043;-62
2023/07/22 12:48:30;;;;;;;5.50;2.40;;;;;;;31.67;29.45;100030.00;5094650;28;20036;-63
2023/07/22 12:50:55;;;;;;;6.63;2.17;;;;;;;31.63;28.33;100031.00;5095518;28;20552;-60
2023/07/22 12:53:20;;;;;;;4.33;2.03;;;;;;;31.47;28.38;100030.59;5095232;28;20047;-62
2023/07/22 12:55:46;;;;;;;3.90;2.60;;;;;;;31.35;29.52;100028.44;5095441;28;20074;-61
2023/07/22 12:58:11;;;;;;;4.67;2.30;;;;;;;30.94;28.62;100039.69;5093544;28;20476;-62
2023/07/22 13:00:37;;;;;;;3.23;2.13;;;;;;;30.66;27.91;100037.03;5093429;28;20060;-62
2023/07/22 13:03:02;;;;;;;4.20;2.50;;;;;;;30.50;28.98;100022.84;5093977;28;20401;-63
2023/07/22 13:05:27;;;;;;;9.30;4.90;;;;;;;31.19;28.87;100027.19;5095153;28;20074;-63
2023/07/22 13:07:53;;;;;;;20.60;10.07;;;;;;;31.20;30.43;100029.63;5094650;28;20039;-61
2023/07/22 13:10:25;;;;;;;7.80;4.17;;;;;;;31.52;28.95;100024.94;5094435;28;20073;-61
2023/07/22 13:12:51;;;;;;;2.92;2.35;;;;;;;31.18;28.12;100022.84;5095165;28;20044;-62
2023/07/22 13:15:16;;;;;;;3.40;2.20;;;;;;;31.45;28.76;100022.66;5095486;28;20119;-63
2023/07/22 13:17:42;;;;;;;6.30;3.08;;;;;;;31.37;28.89;100023.44;5094979;28;20043;-61
2023/07/22 13:20:08;;;;;;;3.63;2.23;;;;;;;30.95;28.72;100025.59;5094753;28;20040;-61
2023/07/22 13:22:35;;;;;;;4.78;2.25;;;;;;;31.01;29.36;100013.34;5095267;28;20044;-64
2023/07/22 13:25:00;;;;;;;8.68;3.78;;;;;;;30.78;30.18;100020.81;5095138;28;20508;-63
2023/07/22 13:27:26;;;;;;;8.40;3.90;;;;;;;30.21;30.19;100012.25;5095087;28;20032;-60
2023/07/22 13:29:51;;;;;;;9.73;5.18;;;;;;;30.27;31.14;100004.72;5094822;28;20044;-62
2023/07/22 13:32:17;;;;;;;7.55;3.85;;;;;;;30.59;30.58;100006.44;5094999;28;20028;-62
2023/07/22 13:34:42;;;;;;;8.15;3.45;;;;;;;30.43;29.97;100011.47;5094963;28;20040;-63
2023/07/22 13:37:08;;;;;;;7.10;4.00;;;;;;;30.52;30.87;100012.34;5094883;28;20040;-62
2023/07/22 13:39:33;;;;;;;6.50;3.90;;;;;;;30.11;29.06;100001.50;5094649;28;20043;-62
2023/07/22 13:41:59;;;;;;;5.72;3.28;;;;;;;29.63;29.59;99999.19;5093743;28;20043;-61
2023/07/22 13:44:24;;;;;;;5.60;3.50;;;;;;;29.12;31.08;99997.41;5094934;28;20115;-62
2023/07/22 13:46:50;;;;;;;3.42;2.28;;;;;;;28.91;30.90;99996.13;5094937;28;20602;-61
2023/07/22 13:49:15;;;;;;;6.88;3.58;;;;;;;28.86;31.86;99999.75;5094392;28;20055;-62
2023/07/22 13:51:41;;;;;;;4.88;3.15;;;;;;;29.18;32.36;99995.41;5076379;28;20044;-59
2023/07/22 13:54:06;;;;;;;8.73;2.90;;;;;;;29.16;31.88;99992.97;5092827;28;20042;-60
2023/07/22 13:56:32;;;;;;;5.88;3.28;;;;;;;28.72;31.53;99989.88;5094480;28;20032;-62
2023/07/22 13:58:59;;;;;;;8.38;3.60;;;;;;;28.65;31.97;99990.28;5094305;28;20043;-61
2023/07/22 14:01:24;;;;;;;7.05;2.50;;;;;;;28.52;32.07;99982.81;5094424;28;20032;-59
2023/07/22 14:03:49;;;;;;;5.03;2.85;;;;;;;28.56;32.52;99984.66;5094464;28;20523;-60
2023/07/22 14:06:15;;;;;;;5.30;3.33;;;;;;;28.69;32.90;99976.78;5094276;28;20036;-62
2023/07/22 14:08:41;;;;;;;5.03;2.70;;;;;;;28.86;32.23;99977.84;5094114;28;20412;-61
2023/07/22 14:11:08;;;;;;;5.65;3.17;;;;;;;28.52;31.50;99980.06;5094130;28;20123;-60
2023/07/22 14:13:33;;;;;;;3.90;2.75;;;;;;;28.39;32.00;99979.72;5094216;28;20042;-61
2023/07/22 14:15:58;;;;;;;5.13;2.60;;;;;;;28.45;33.00;99976.91;5094084;28;20036;-59
2023/07/22 14:18:24;;;;;;;6.65;2.85;;;;;;;28.52;32.26;99961.72;5094240;28;20146;-60
2023/07/22 14:20:50;;;;;;;4.85;3.30;;;;;;;28.51;32.75;99970.25;5093929;28;20036;-60
2023/07/22 14:23:15;;;;;;;5.38;3.08;;;;;;;28.44;32.77;99978.03;5094174;28;20024;-60
2023/07/22 14:25:41;;;;;;;5.15;2.70;;;;;;;28.14;32.76;99971.84;5093994;28;20501;-61
2023/07/22 14:28:06;;;;;;;5.00;2.60;;;;;;;28.15;32.81;99969.94;5094079;28;20062;-61
2023/07/22 14:30:32;;;;;;;6.10;2.53;;;;;;;28.08;32.51;99968.38;5093607;28;20123;-62
2023/07/22 14:32:58;;;;;;;9.60;2.70;;;;;;;28.09;33.05;99960.97;5093818;28;20081;-61
2023/07/22 14:35:23;;;;;;;4.30;2.72;;;;;;;27.94;32.24;99967.50;5093673;28;20111;-61
2023/07/22 14:37:49;;;;;;;5.05;2.95;;;;;;;27.93;32.07;99978.75;5093755;28;20512;-61
2023/07/22 14:40:14;;;;;;;8.23;2.50;;;;;;;27.96;32.32;99964.44;5093279;28;20048;-60
2023/07/22 14:42:40;;;;;;;7.50;3.05;;;;;;;27.84;31.76;99962.97;5093630;28;20036;-60
2023/07/22 14:45:06;;;;;;;8.80;3.15;;;;;;;27.86;31.97;99962.69;5093777;28;20043;-61
2023/07/22 14:47:32;;;;;;;4.93;2.67;;;;;;;27.67;31.63;99961.81;5093494;28;20676;-60
2023/07/22 14:49:57;;;;;;;7.80;2.83;;;;;;;27.74;32.15;99963.09;5093163;28;20043;-61
2023/07/22 14:52:22;;;;;;;3.85;2.50;;;;;;;27.78;31.19;99957.88;5093334;28;20040;-61
2023/07/22 14:54:49;;;;;;;5.63;2.88;;;;;;;27.92;32.45;99960.69;5093339;28;20074;-61
2023/07/22 14:57:14;;;;;;;6.32;2.95;;;;;;;27.88;32.09;99943.22;5093224;28;20477;-61
2023/07/22 14:59:40;;;;;;;6.53;3.00;;;;;;;27.83;32.08;99957.78;5093065;28;20040;-60
2023/07/22 15:02:05;;;;;;;9.57;3.35;;;;;;;27.74;32.34;99946.69;5093197;28;20153;-60
2023/07/22 15:04:31;;;;;;;6.63;3.03;;;;;;;27.73;32.25;99956.00;5092884;28;20043;-62
2023/07/22 15:06:57;;;;;;;5.63;3.03;;;;;;;27.72;33.08;99951.66;5092676;28;20115;-62
2023/07/22 15:09:22;;;;;;;5.22;3.17;;;;;;;27.69;31.92;99948.69;5092863;28;20036;-61
2023/07/22 15:11:47;;;;;;;5.53;2.35;;;;;;;27.58;31.03;99943.31;5092905;28;20051;-60
2023/07/22 15:14:13;;;;;;;5.45;3.20;;;;;;;27.62;32.15;99953.66;5093168;28;20055;-62
2023/07/22 15:16:40;;;;;;;4.88;2.92;;;;;;;27.58;31.86;99937.84;5092955;28;20060;-61
2023/07/22 15:19:05;;;;;;;6.78;3.20;;;;;;;27.65;32.09;99937.50;5092641;28;20036;-60
2023/07/22 15:21:31;;;;;;;7.30;3.00;;;;;;;27.91;31.79;99950.84;5093025;28;20036;-61
2023/07/22 15:23:56;;;;;;;6.32;3.05;;;;;;;27.78;31.71;99944.19;5092835;28;20036;-59
2023/07/22 15:26:21;;;;;;;6.75;2.88;;;;;;;27.83;32.21;99939.44;5092684;28;20074;-62
2023/07/22 15:28:48;;;;;;;8.38;3.90;;;;;;;27.76;32.48;99938.19;5092412;28;20404;-60
2023/07/22 15:31:17;;;;;;;5.45;2.85;;;;;;;27.61;32.32;99925.50;5092780;28;20403;-61
2023/07/22 15:33:43;;;;;;;7.45;3.65;;;;;;;27.71;32.97;99936.34;5092574;28;20032;-62
2023/07/22 15:36:08;;;;;;;7.57;2.95;;;;;;;27.76;32.52;99933.53;5092571;28;20449;-61
2023/07/22 15:38:33;;;;;;;5.55;3.00;;;;;;;27.50;33.04;99934.94;5092282;28;20108;-64
2023/07/22 15:40:59;;;;;;;8.40;3.80;;;;;;;27.57;32.14;99930.72;5092737;28;20036;-61
2023/07/22 15:43:24;;;;;;;8.20;3.90;;;;;;;27.52;33.40;99949.16;5092364;28;20043;-60
2023/07/22 15:45:50;;;;;;;5.90;3.50;;;;;;;27.47;32.77;99941.00;5092845;28;20036;-61